createdAt,value
2022-09-07T00:00:09.802Z,21.00
2022-09-07T00:01:09.769Z,21.00
2022-09-07T00:02:09.751Z,21.00
2022-09-07T00:03:09.865Z,20.99
2022-09-07T00:04:09.785Z,21.00
2022-09-07T00:05:09.732Z,20.99
2022-09-07T00:06:09.712Z,21.00
2022-09-07T00:07:09.696Z,21.00
2022-09-07T00:08:09.692Z,21.00
2022-09-07T00:09:09.672Z,21.00
2022-09-07T00:10:09.683Z,20.99
2022-09-07T00:11:09.656Z,20.99
2022-09-07T00:12:09.648Z,21.00
2022-09-07T00:13:09.623Z,21.02
2022-09-07T00:14:09.623Z,21.05
2022-09-07T00:15:09.615Z,21.11
2022-09-07T00:16:09.702Z,21.14
2022-09-07T00:17:09.585Z,21.17
2022-09-07T00:18:09.586Z,21.18
2022-09-07T00:19:09.564Z,21.20
2022-09-07T00:20:09.555Z,21.21
2022-09-07T00:21:09.550Z,21.22
2022-09-07T00:22:09.543Z,21.21
2022-09-07T00:23:09.522Z,21.21
2022-09-07T00:24:09.518Z,21.21
2022-09-07T00:25:09.489Z,21.21
2022-09-07T00:26:09.496Z,21.18
2022-09-07T00:27:09.476Z,21.15
2022-09-07T00:28:09.492Z,21.12
2022-09-07T00:29:09.457Z,21.12
2022-09-07T00:30:09.448Z,21.09
2022-09-07T00:31:09.554Z,21.07
2022-09-07T00:32:09.447Z,21.07
2022-09-07T00:33:09.412Z,21.06
2022-09-07T00:34:09.398Z,21.06
2022-09-07T00:35:09.380Z,21.07
2022-09-07T00:36:09.403Z,21.09
2022-09-07T00:37:09.360Z,21.11
2022-09-07T00:38:09.359Z,21.11
2022-09-07T00:39:09.344Z,21.11
2022-09-07T00:40:09.407Z,21.12
2022-09-07T00:41:09.314Z,21.12
2022-09-07T00:42:09.334Z,21.14
2022-09-07T00:43:09.292Z,21.12
2022-09-07T00:44:09.291Z,21.17
2022-09-07T00:45:09.272Z,21.20
2022-09-07T00:46:09.297Z,21.20
2022-09-07T00:47:09.260Z,21.21
2022-09-07T00:48:09.705Z,21.22
2022-09-07T00:49:09.235Z,21.24
2022-09-07T00:50:09.228Z,21.32
2022-09-07T00:51:09.211Z,21.40
2022-09-07T00:52:09.212Z,21.51
2022-09-07T00:53:09.184Z,21.55
2022-09-07T00:54:09.185Z,21.57
2022-09-07T00:55:09.173Z,21.55
2022-09-07T00:56:09.160Z,21.50
2022-09-07T00:57:09.192Z,21.45
2022-09-07T00:58:09.144Z,21.37
2022-09-07T00:59:09.124Z,21.30
2022-09-07T01:00:09.117Z,21.21
2022-09-07T01:01:09.096Z,21.11
2022-09-07T01:02:09.246Z,20.97
2022-09-07T01:03:09.126Z,20.82
2022-09-07T01:04:09.076Z,20.72
2022-09-07T01:05:09.679Z,20.66
2022-09-07T01:06:09.049Z,20.52
2022-09-07T01:07:09.063Z,20.37
2022-09-07T01:08:09.324Z,20.29
2022-09-07T01:09:09.004Z,20.21
2022-09-07T01:10:09.010Z,20.13
2022-09-07T01:11:08.985Z,20.07
2022-09-07T01:12:08.999Z,20.04
2022-09-07T01:13:08.960Z,19.99
2022-09-07T01:14:08.957Z,19.95
2022-09-07T01:15:08.936Z,19.92
2022-09-07T01:16:08.987Z,19.91
2022-09-07T01:17:08.940Z,19.85
2022-09-07T01:18:08.908Z,19.82
2022-09-07T01:19:08.889Z,19.74
2022-09-07T01:20:08.909Z,19.67
2022-09-07T01:21:08.868Z,19.63
2022-09-07T01:22:08.870Z,19.59
2022-09-07T01:23:08.881Z,19.56
2022-09-07T01:24:08.849Z,19.56
2022-09-07T01:25:08.829Z,19.51
2022-09-07T01:26:08.828Z,19.49
2022-09-07T01:27:08.808Z,19.48
2022-09-07T01:28:08.948Z,19.47
2022-09-07T01:29:08.801Z,19.44
2022-09-07T01:30:08.780Z,19.41
2022-09-07T01:31:08.814Z,19.41
2022-09-07T01:32:08.789Z,19.41
2022-09-07T01:33:08.744Z,19.41
2022-09-07T01:34:08.737Z,19.41
2022-09-07T01:35:08.721Z,19.40
2022-09-07T01:36:08.713Z,19.37
2022-09-07T01:37:08.721Z,19.39
2022-09-07T01:38:08.694Z,19.40
2022-09-07T01:39:08.673Z,19.44
2022-09-07T01:40:08.728Z,19.41
2022-09-07T01:41:08.657Z,19.45
2022-09-07T01:42:08.658Z,19.45
2022-09-07T01:43:08.635Z,19.47
2022-09-07T01:44:08.633Z,19.44
2022-09-07T01:45:08.613Z,19.47
2022-09-07T01:46:08.641Z,19.47
2022-09-07T01:47:08.585Z,19.47
2022-09-07T01:48:08.592Z,19.47
2022-09-07T01:49:08.553Z,19.45
2022-09-07T01:50:08.565Z,19.47
2022-09-07T01:51:08.537Z,19.45
2022-09-07T01:52:08.545Z,19.45
2022-09-07T01:53:08.533Z,19.44
2022-09-07T01:54:08.525Z,19.44
2022-09-07T01:55:08.497Z,19.41
2022-09-07T01:56:08.493Z,19.41
2022-09-07T01:57:08.477Z,19.41
2022-09-07T01:58:08.488Z,19.39
2022-09-07T01:59:08.454Z,19.40
2022-09-07T02:00:08.453Z,19.40
2022-09-07T02:01:08.446Z,19.40
2022-09-07T02:02:08.483Z,19.40
2022-09-07T02:03:08.499Z,19.37
2022-09-07T02:04:08.409Z,19.39
2022-09-07T02:05:08.377Z,19.37
2022-09-07T02:06:08.386Z,19.40
2022-09-07T02:07:08.357Z,19.41
2022-09-07T02:08:08.377Z,19.40
2022-09-07T02:09:08.338Z,19.41
2022-09-07T02:10:08.338Z,19.40
2022-09-07T02:11:08.334Z,19.40
2022-09-07T02:12:08.321Z,19.40
2022-09-07T02:13:08.319Z,19.40
2022-09-07T02:14:08.290Z,19.40
2022-09-07T02:15:08.277Z,19.41
2022-09-07T02:16:08.314Z,19.41
2022-09-07T02:17:08.262Z,19.44
2022-09-07T02:18:08.261Z,19.41
2022-09-07T02:19:08.238Z,19.41
2022-09-07T02:20:08.229Z,19.40
2022-09-07T02:21:08.223Z,19.41
2022-09-07T02:22:08.201Z,19.39
2022-09-07T02:23:08.181Z,19.39
2022-09-07T02:24:08.203Z,19.39
2022-09-07T02:25:08.162Z,19.39
2022-09-07T02:26:08.162Z,19.37
2022-09-07T02:27:08.142Z,19.36
2022-09-07T02:28:08.141Z,19.37
2022-09-07T02:29:08.195Z,19.36
2022-09-07T02:30:08.119Z,19.36
2022-09-07T02:31:08.214Z,19.37
2022-09-07T02:32:08.094Z,19.39
2022-09-07T02:33:08.082Z,19.39
2022-09-07T02:34:08.071Z,19.39
2022-09-07T02:35:08.054Z,19.39
2022-09-07T02:36:08.057Z,19.39
2022-09-07T02:37:08.917Z,19.37
2022-09-07T02:38:08.045Z,19.37
2022-09-07T02:39:08.005Z,19.33
2022-09-07T02:40:08.071Z,19.30
2022-09-07T02:41:07.986Z,19.29
2022-09-07T02:42:07.989Z,19.29
2022-09-07T02:43:07.985Z,19.24
2022-09-07T02:44:07.954Z,19.26
2022-09-07T02:45:07.946Z,19.26
2022-09-07T02:46:07.978Z,19.29
2022-09-07T02:47:07.914Z,19.29
2022-09-07T02:48:07.934Z,19.29
2022-09-07T02:49:07.894Z,19.29
2022-09-07T02:50:07.902Z,19.30
2022-09-07T02:51:07.873Z,19.30
2022-09-07T02:52:07.875Z,19.27
2022-09-07T02:53:07.865Z,19.29
2022-09-07T02:54:07.866Z,19.26
2022-09-07T02:55:07.839Z,19.21
2022-09-07T02:56:07.833Z,19.22
2022-09-07T02:57:08.205Z,19.18
2022-09-07T02:58:07.806Z,19.16
2022-09-07T02:59:07.798Z,19.15
2022-09-07T03:00:07.789Z,19.14
2022-09-07T03:01:07.870Z,19.12
2022-09-07T03:02:07.805Z,19.11
2022-09-07T03:03:07.753Z,19.09
2022-09-07T03:04:07.759Z,19.04
2022-09-07T03:05:07.719Z,18.98
2022-09-07T03:06:07.718Z,18.95
2022-09-07T03:07:07.700Z,18.86
2022-09-07T03:08:07.691Z,18.81
2022-09-07T03:09:07.698Z,18.74
2022-09-07T03:10:07.671Z,18.71
2022-09-07T03:11:07.650Z,18.70
2022-09-07T03:12:07.651Z,18.68
2022-09-07T03:13:07.630Z,18.66
2022-09-07T03:14:07.630Z,18.66
2022-09-07T03:15:07.622Z,18.65
2022-09-07T03:16:07.734Z,18.65
2022-09-07T03:17:07.590Z,18.65
2022-09-07T03:18:07.586Z,18.65
2022-09-07T03:19:07.563Z,18.65
2022-09-07T03:20:07.575Z,18.62
2022-09-07T03:21:07.552Z,18.58
2022-09-07T03:22:07.538Z,18.58
2022-09-07T03:23:07.530Z,18.58
2022-09-07T03:24:07.522Z,18.56
2022-09-07T03:25:07.513Z,18.56
2022-09-07T03:26:07.502Z,18.53
2022-09-07T03:27:07.484Z,18.52
2022-09-07T03:28:07.482Z,18.53
2022-09-07T03:29:07.455Z,18.52
2022-09-07T03:30:07.655Z,18.50
2022-09-07T03:31:07.531Z,18.50
2022-09-07T03:32:07.435Z,18.50
2022-09-07T03:33:07.415Z,18.47
2022-09-07T03:34:07.416Z,18.44
2022-09-07T03:35:07.462Z,18.43
2022-09-07T03:36:07.394Z,18.44
2022-09-07T03:37:07.856Z,18.44
2022-09-07T03:38:07.367Z,18.43
2022-09-07T03:39:07.346Z,18.41
2022-09-07T03:40:07.416Z,18.41
2022-09-07T03:41:07.314Z,18.40
2022-09-07T03:42:07.327Z,18.37
2022-09-07T03:43:07.322Z,18.38
2022-09-07T03:44:07.295Z,18.34
2022-09-07T03:45:07.307Z,18.31
2022-09-07T03:46:07.331Z,18.29
2022-09-07T03:47:07.247Z,18.29
2022-09-07T03:48:07.268Z,18.31
2022-09-07T03:49:07.232Z,18.28
2022-09-07T03:50:07.238Z,18.26
2022-09-07T03:51:07.228Z,18.23
2022-09-07T03:52:07.207Z,18.25
2022-09-07T03:53:07.186Z,18.23
2022-09-07T03:54:07.199Z,18.22
2022-09-07T03:55:07.205Z,18.20
2022-09-07T03:56:07.162Z,18.19
2022-09-07T03:57:07.387Z,18.18
2022-09-07T03:58:07.151Z,18.16
2022-09-07T03:59:07.127Z,18.15
2022-09-07T04:00:07.139Z,18.11
2022-09-07T04:01:07.185Z,18.11
2022-09-07T04:02:07.167Z,18.07
2022-09-07T04:03:07.105Z,18.04
2022-09-07T04:04:07.070Z,18.03
2022-09-07T04:05:07.058Z,18.00
2022-09-07T04:06:07.074Z,17.97
2022-09-07T04:07:07.031Z,17.94
2022-09-07T04:08:07.031Z,17.89
2022-09-07T04:09:07.013Z,17.87
2022-09-07T04:10:07.019Z,17.86
2022-09-07T04:11:06.999Z,17.83
2022-09-07T04:12:06.992Z,17.82
2022-09-07T04:13:06.973Z,17.80
2022-09-07T04:14:06.953Z,17.80
2022-09-07T04:15:06.973Z,17.76
2022-09-07T04:16:06.939Z,17.76
2022-09-07T04:17:07.118Z,17.72
2022-09-07T04:18:06.923Z,17.72
2022-09-07T04:19:06.912Z,17.71
2022-09-07T04:20:06.924Z,17.70
2022-09-07T04:21:06.891Z,17.67
2022-09-07T04:22:06.873Z,17.65
2022-09-07T04:23:06.873Z,17.64
2022-09-07T04:24:06.854Z,17.63
2022-09-07T04:25:06.865Z,17.60
2022-09-07T04:26:06.832Z,17.60
2022-09-07T04:27:06.824Z,17.59
2022-09-07T04:28:06.805Z,17.59
2022-09-07T04:29:06.806Z,17.57
2022-09-07T04:30:06.792Z,17.57
2022-09-07T04:31:06.890Z,17.56
2022-09-07T04:32:06.776Z,17.52
2022-09-07T04:33:06.769Z,17.52
2022-09-07T04:34:06.724Z,17.51
2022-09-07T04:35:06.744Z,17.49
2022-09-07T04:36:06.712Z,17.48
2022-09-07T04:37:06.716Z,17.48
2022-09-07T04:38:06.696Z,17.45
2022-09-07T04:39:06.685Z,17.45
2022-09-07T04:40:06.766Z,17.46
2022-09-07T04:41:06.672Z,17.48
2022-09-07T04:42:06.644Z,17.46
2022-09-07T04:43:06.657Z,17.48
2022-09-07T04:44:06.640Z,17.48
2022-09-07T04:45:06.636Z,17.45
2022-09-07T04:46:06.682Z,17.44
2022-09-07T04:47:06.616Z,17.44
2022-09-07T04:48:06.576Z,17.39
2022-09-07T04:49:06.588Z,17.39
2022-09-07T04:50:06.556Z,17.38
2022-09-07T04:51:06.568Z,17.38
2022-09-07T04:52:06.549Z,17.36
2022-09-07T04:53:06.537Z,17.34
2022-09-07T04:54:06.508Z,17.34
2022-09-07T04:55:06.515Z,17.33
2022-09-07T04:56:06.499Z,17.33
2022-09-07T04:57:06.531Z,17.34
2022-09-07T04:58:06.482Z,17.33
2022-09-07T04:59:06.465Z,17.34
2022-09-07T05:00:06.448Z,17.34
2022-09-07T05:01:06.507Z,17.33
2022-09-07T05:02:06.452Z,17.33
2022-09-07T05:03:06.420Z,17.31
2022-09-07T05:04:06.448Z,17.30
2022-09-07T05:05:06.401Z,17.30
2022-09-07T05:06:06.509Z,17.27
2022-09-07T05:07:06.397Z,17.26
2022-09-07T05:08:06.369Z,17.24
2022-09-07T05:09:06.341Z,17.24
2022-09-07T05:10:06.333Z,17.23
2022-09-07T05:11:06.329Z,17.23
2022-09-07T05:12:06.321Z,17.22
2022-09-07T05:13:06.321Z,17.22
2022-09-07T05:14:06.294Z,17.22
2022-09-07T05:15:06.293Z,17.19
2022-09-07T05:16:06.273Z,17.22
2022-09-07T05:17:06.269Z,17.19
2022-09-07T05:18:06.281Z,17.19
2022-09-07T05:19:06.241Z,17.16
2022-09-07T05:20:06.222Z,17.16
2022-09-07T05:21:06.221Z,17.19
2022-09-07T05:22:06.205Z,17.16
2022-09-07T05:23:06.215Z,17.20
2022-09-07T05:24:06.185Z,17.22
2022-09-07T05:25:06.185Z,17.22
2022-09-07T05:26:06.153Z,17.23
2022-09-07T05:27:06.153Z,17.24
2022-09-07T05:28:06.160Z,17.24
2022-09-07T05:30:07.427Z,17.26
2022-09-07T05:31:21.443Z,17.26
2022-09-07T05:32:07.085Z,17.29
2022-09-07T05:33:06.096Z,17.31
2022-09-07T05:35:07.062Z,17.31
2022-09-07T05:36:06.045Z,17.31
2022-09-07T05:37:06.045Z,17.31
2022-09-07T05:38:06.038Z,17.33
2022-09-07T05:39:06.024Z,17.33
2022-09-07T05:40:06.144Z,17.34
2022-09-07T05:41:05.990Z,17.36
2022-09-07T05:42:05.977Z,17.36
2022-09-07T05:43:05.985Z,17.38
2022-09-07T05:45:06.947Z,17.36
2022-09-07T05:46:06.025Z,17.38
2022-09-07T05:47:05.937Z,17.38
2022-09-07T05:48:05.905Z,17.39
2022-09-07T05:49:05.917Z,17.41
2022-09-07T05:50:05.885Z,17.39
2022-09-07T05:51:05.877Z,17.41
2022-09-07T05:52:05.879Z,17.41
2022-09-07T05:53:05.857Z,17.42
2022-09-07T05:54:05.868Z,17.44
2022-09-07T05:55:28.213Z,17.44
2022-09-07T05:56:07.206Z,17.46
2022-09-07T05:57:05.821Z,17.46
2022-09-07T05:58:05.798Z,17.48
2022-09-07T05:59:05.950Z,17.51
2022-09-07T06:00:05.780Z,17.51
2022-09-07T06:01:05.767Z,17.51
2022-09-07T06:02:05.837Z,17.56
2022-09-07T06:03:05.821Z,17.59
2022-09-07T06:04:05.730Z,17.59
2022-09-07T06:05:05.721Z,17.60
2022-09-07T06:06:06.090Z,17.63
2022-09-07T06:07:21.165Z,17.63
2022-09-07T06:08:06.690Z,17.65
2022-09-07T06:09:05.689Z,17.64
2022-09-07T06:11:06.667Z,17.70
2022-09-07T06:12:05.634Z,17.71
2022-09-07T06:13:05.630Z,17.72
2022-09-07T06:14:05.621Z,17.76
2022-09-07T06:15:05.615Z,17.74
2022-09-07T06:16:05.610Z,17.76
2022-09-07T06:17:05.590Z,17.76
2022-09-07T06:18:05.562Z,17.82
2022-09-07T06:19:05.594Z,17.83
2022-09-07T06:20:05.558Z,17.83
2022-09-07T06:21:05.542Z,17.83
2022-09-07T06:22:05.534Z,17.87
2022-09-07T06:23:05.523Z,17.90
2022-09-07T06:24:05.515Z,17.89
2022-09-07T06:25:05.502Z,17.92
2022-09-07T06:26:05.602Z,17.95
2022-09-07T06:27:05.482Z,17.97
2022-09-07T06:28:05.462Z,18.01
2022-09-07T06:29:05.474Z,18.01
2022-09-07T06:30:05.434Z,18.04
2022-09-07T06:31:05.447Z,18.08
2022-09-07T06:33:06.440Z,18.16
2022-09-07T06:34:05.407Z,18.20
2022-09-07T06:35:05.396Z,18.23
2022-09-07T06:36:05.378Z,18.26
2022-09-07T06:37:05.386Z,18.29
2022-09-07T06:38:05.347Z,18.34
2022-09-07T06:39:05.356Z,18.34
2022-09-07T06:40:05.373Z,18.37
2022-09-07T06:42:06.317Z,18.45
2022-09-07T06:43:05.307Z,18.47
2022-09-07T06:44:05.298Z,18.52
2022-09-07T06:45:05.298Z,18.56
2022-09-07T06:47:06.259Z,18.63
2022-09-07T06:48:05.227Z,18.62
2022-09-07T06:49:05.258Z,18.63
2022-09-07T06:50:05.229Z,18.63
2022-09-07T06:51:05.218Z,18.63
2022-09-07T06:52:05.208Z,18.66
2022-09-07T06:55:06.167Z,18.74
2022-09-07T06:56:05.148Z,18.78
2022-09-07T06:57:05.179Z,18.81
2022-09-07T06:58:05.119Z,18.81
2022-09-07T06:59:05.139Z,18.84
2022-09-07T07:00:05.123Z,18.86
2022-09-07T07:01:05.135Z,18.88
2022-09-07T07:02:05.080Z,18.90
2022-09-07T07:03:05.130Z,18.90
2022-09-07T07:04:05.061Z,18.90
2022-09-07T07:05:05.170Z,18.96
2022-09-07T07:06:05.031Z,18.99
2022-09-07T07:07:05.031Z,19.00
2022-09-07T07:08:05.006Z,19.02
2022-09-07T07:09:05.011Z,19.02
2022-09-07T07:10:05.003Z,19.07
2022-09-07T07:11:04.991Z,19.11
2022-09-07T07:12:04.987Z,19.15
2022-09-07T07:13:04.972Z,19.16
2022-09-07T07:14:04.952Z,19.18
2022-09-07T07:15:04.963Z,19.21
2022-09-07T07:16:04.979Z,19.22
2022-09-07T07:17:04.923Z,19.27
2022-09-07T07:18:19.987Z,19.27
2022-09-07T07:19:05.904Z,19.29
2022-09-07T07:20:04.892Z,19.30
2022-09-07T07:21:04.875Z,19.31
2022-09-07T07:22:18.731Z,19.34
2022-09-07T07:23:05.851Z,19.36
2022-09-07T07:24:08.047Z,19.39
2022-09-07T07:25:04.884Z,19.41
2022-09-07T07:26:04.821Z,19.48
2022-09-07T07:27:04.827Z,19.52
2022-09-07T07:29:05.798Z,19.63
2022-09-07T07:30:04.787Z,19.69
2022-09-07T07:31:08.960Z,19.73
2022-09-07T07:32:05.747Z,19.76
2022-09-07T07:33:04.825Z,19.77
2022-09-07T07:34:04.776Z,19.81
2022-09-07T07:35:05.468Z,19.86
2022-09-07T07:36:04.714Z,19.91
2022-09-07T07:37:04.717Z,19.96
2022-09-07T07:39:05.876Z,20.09
2022-09-07T07:42:06.258Z,20.21
2022-09-07T07:43:05.718Z,20.25
2022-09-07T07:44:04.628Z,20.36
2022-09-07T07:46:06.319Z,20.50
2022-09-07T07:47:04.664Z,20.58
2022-09-07T07:48:04.580Z,20.62
2022-09-07T07:49:04.568Z,20.59
2022-09-07T07:51:09.940Z,20.62
2022-09-07T07:54:05.523Z,20.65
2022-09-07T07:55:43.003Z,20.47
2022-09-07T07:56:05.595Z,20.43
2022-09-07T07:57:04.488Z,20.44
2022-09-07T07:58:04.459Z,20.47
2022-09-07T07:59:04.460Z,20.47
2022-09-07T08:00:04.440Z,20.52
2022-09-07T08:01:04.481Z,20.55
2022-09-07T08:02:05.299Z,20.60
2022-09-07T08:03:04.420Z,20.65
2022-09-07T08:04:04.400Z,20.74
2022-09-07T08:05:04.434Z,20.77
2022-09-07T08:06:04.391Z,20.82
2022-09-07T08:07:09.538Z,20.82
2022-09-07T08:08:05.372Z,20.82
2022-09-07T08:09:04.357Z,20.88
2022-09-07T08:10:04.332Z,20.92
2022-09-07T08:11:04.346Z,20.93
2022-09-07T08:12:04.325Z,20.99
2022-09-07T08:13:04.313Z,21.06
2022-09-07T08:14:04.284Z,21.11
2022-09-07T08:15:04.594Z,21.17
2022-09-07T08:16:04.320Z,21.15
2022-09-07T08:17:04.284Z,21.17
2022-09-07T08:18:04.248Z,21.11
2022-09-07T08:19:04.245Z,21.03
2022-09-07T08:20:04.223Z,20.97
2022-09-07T08:21:04.236Z,21.00
2022-09-07T08:22:04.198Z,21.03
2022-09-07T08:23:04.197Z,21.06
2022-09-07T08:24:04.188Z,21.07
2022-09-07T08:25:04.177Z,21.12
2022-09-07T08:26:04.165Z,21.09
2022-09-07T08:27:04.345Z,21.05
2022-09-07T08:28:04.167Z,21.03
2022-09-07T08:29:04.136Z,21.00
2022-09-07T08:30:04.136Z,20.95
2022-09-07T08:31:04.145Z,20.92
2022-09-07T08:32:04.125Z,20.96
2022-09-07T08:33:04.089Z,20.96
2022-09-07T08:34:04.080Z,21.00
2022-09-07T08:35:04.057Z,21.03
2022-09-07T08:36:04.069Z,21.05
2022-09-07T08:37:04.228Z,21.03
2022-09-07T08:38:04.042Z,21.05
2022-09-07T08:39:04.022Z,21.06
2022-09-07T08:40:04.121Z,21.06
2022-09-07T08:41:04.010Z,21.06
2022-09-07T08:42:04.000Z,21.06
2022-09-07T08:43:03.968Z,21.03
2022-09-07T08:44:03.968Z,21.09
2022-09-07T08:45:03.961Z,21.11
2022-09-07T08:46:03.948Z,21.11
2022-09-07T08:47:03.976Z,21.15
2022-09-07T08:48:03.920Z,21.20
2022-09-07T08:49:03.912Z,21.21
2022-09-07T08:50:03.901Z,21.20
2022-09-07T08:51:03.881Z,21.18
2022-09-07T08:52:03.915Z,21.24
2022-09-07T08:53:03.868Z,21.30
2022-09-07T08:54:03.861Z,21.33
2022-09-07T08:55:03.940Z,21.36
2022-09-07T08:56:03.832Z,21.36
2022-09-07T08:58:04.825Z,21.39
2022-09-07T08:59:03.793Z,21.37
2022-09-07T09:00:03.793Z,21.32
2022-09-07T09:04:21.798Z,21.27
2022-09-07T09:05:20.382Z,21.29
2022-09-07T09:06:04.822Z,21.36
2022-09-07T09:07:03.801Z,21.48
2022-09-07T09:08:03.717Z,21.52
2022-09-07T09:09:03.686Z,21.54
2022-09-07T09:10:03.688Z,21.50
2022-09-07T09:11:03.665Z,21.51
2022-09-07T09:12:03.677Z,21.54
2022-09-07T09:13:03.663Z,21.51
2022-09-07T09:14:03.646Z,21.45
2022-09-07T09:15:03.639Z,21.43
2022-09-07T09:16:03.707Z,21.40
2022-09-07T09:17:03.611Z,21.40
2022-09-07T09:18:03.608Z,21.48
2022-09-07T09:19:03.576Z,21.57
2022-09-07T09:20:03.579Z,21.64
2022-09-07T09:21:03.557Z,21.70
2022-09-07T09:22:03.577Z,21.73
2022-09-07T09:23:03.547Z,21.77
2022-09-07T09:24:03.540Z,21.82
2022-09-07T09:25:03.519Z,21.79
2022-09-07T09:26:03.510Z,21.75
2022-09-07T09:27:03.513Z,21.82
2022-09-07T09:28:03.484Z,21.82
2022-09-07T09:29:03.469Z,21.80
2022-09-07T09:30:03.461Z,21.76
2022-09-07T09:31:03.496Z,21.69
2022-09-07T09:32:03.449Z,21.58
2022-09-07T09:33:03.433Z,21.54
2022-09-07T09:34:03.421Z,21.51
2022-09-07T09:35:03.389Z,21.45
2022-09-07T09:36:03.402Z,21.33
2022-09-07T09:37:03.397Z,21.32
2022-09-07T09:38:03.401Z,21.36
2022-09-07T09:39:03.367Z,21.35
2022-09-07T09:40:03.455Z,21.37
2022-09-07T09:41:03.333Z,21.42
2022-09-07T09:42:03.342Z,21.43
2022-09-07T09:43:03.538Z,21.42
2022-09-07T09:44:03.360Z,21.45
2022-09-07T09:45:03.287Z,21.42
2022-09-07T09:46:18.957Z,21.45
2022-09-07T09:48:04.371Z,21.57
2022-09-07T09:49:03.245Z,21.62
2022-09-07T09:50:03.236Z,21.67
2022-09-07T09:53:04.214Z,21.57
2022-09-07T09:54:03.197Z,21.54
2022-09-07T09:55:33.707Z,21.46
2022-09-07T09:56:04.168Z,21.40
2022-09-07T09:57:03.157Z,21.39
2022-09-07T09:59:05.778Z,21.50
2022-09-07T10:00:08.833Z,21.58
2022-09-07T10:04:09.525Z,21.51
2022-09-07T10:05:04.086Z,21.46
2022-09-07T10:06:03.078Z,21.39
2022-09-07T10:07:03.050Z,21.32
2022-09-07T10:08:03.038Z,21.30
2022-09-07T10:09:03.048Z,21.33
2022-09-07T10:10:03.029Z,21.37
2022-09-07T10:11:03.006Z,21.42
2022-09-07T10:12:06.675Z,21.46
2022-09-07T10:13:02.989Z,21.46
2022-09-07T10:14:02.997Z,21.48
2022-09-07T10:15:02.957Z,21.55
2022-09-07T10:16:02.987Z,21.58
2022-09-07T10:17:02.942Z,21.61
2022-09-07T10:18:02.922Z,21.61
2022-09-07T10:19:02.933Z,21.60
2022-09-07T10:20:02.910Z,21.55
2022-09-07T10:21:02.890Z,21.57
2022-09-07T10:22:02.892Z,21.61
2022-09-07T10:23:02.871Z,21.60
2022-09-07T10:24:03.302Z,21.58
2022-09-07T10:25:02.851Z,21.58
2022-09-07T10:26:02.853Z,21.57
2022-09-07T10:27:02.824Z,21.58
2022-09-07T10:28:02.814Z,21.62
2022-09-07T10:29:10.376Z,21.66
2022-09-07T10:30:06.729Z,21.72
2022-09-07T10:31:02.813Z,21.76
2022-09-07T10:32:02.784Z,21.85
2022-09-07T10:33:02.754Z,21.95
2022-09-07T10:35:05.260Z,22.30
2022-09-07T10:36:02.727Z,22.43
2022-09-07T10:37:02.716Z,22.54
2022-09-07T10:38:02.714Z,22.72
2022-09-07T10:39:02.707Z,22.78
2022-09-07T10:40:02.747Z,22.87
2022-09-07T10:41:02.666Z,22.81
2022-09-07T10:42:02.682Z,22.78
2022-09-07T10:44:03.867Z,23.05
2022-09-07T10:45:02.618Z,23.28
2022-09-07T10:46:02.653Z,23.41
2022-09-07T10:47:02.682Z,23.55
2022-09-07T10:48:02.598Z,23.65
2022-09-07T10:49:02.818Z,23.63
2022-09-07T10:51:13.460Z,23.66
2022-09-07T10:52:03.559Z,23.80
2022-09-07T10:53:18.039Z,23.95
2022-09-07T10:55:03.519Z,24.11
2022-09-07T10:56:02.518Z,24.16
2022-09-07T10:57:02.500Z,24.14
2022-09-07T10:58:02.498Z,24.08
2022-09-07T10:59:03.470Z,24.05
2022-09-07T11:00:10.219Z,24.05
2022-09-07T11:01:03.451Z,24.02
2022-09-07T11:02:02.454Z,24.10
2022-09-07T11:04:03.497Z,24.14
2022-09-07T11:05:02.420Z,24.14
2022-09-07T11:06:02.423Z,24.17
2022-09-07T11:07:02.392Z,24.20
2022-09-07T11:08:02.384Z,24.06
2022-09-07T11:09:18.584Z,24.05
2022-09-07T11:10:03.371Z,23.66
2022-09-07T11:11:02.343Z,23.48
2022-09-07T11:12:03.368Z,23.50
2022-09-07T11:13:02.322Z,23.46
2022-09-07T11:14:12.943Z,23.34
2022-09-07T11:15:03.305Z,23.32
2022-09-07T11:16:02.356Z,23.23
2022-09-07T11:17:02.377Z,23.28
2022-09-07T11:18:02.267Z,23.40
2022-09-07T11:20:03.263Z,23.36
2022-09-07T11:21:02.227Z,23.28
2022-09-07T11:22:02.249Z,23.21
2022-09-07T11:23:02.212Z,23.17
2022-09-07T11:24:02.207Z,23.06
2022-09-07T11:26:03.182Z,23.03
2022-09-07T11:27:02.169Z,23.03
2022-09-07T11:28:02.167Z,22.99
2022-09-07T11:30:03.170Z,23.02
2022-09-07T11:31:02.233Z,23.10
2022-09-07T11:32:02.144Z,23.25
2022-09-07T11:33:02.121Z,23.32
2022-09-07T11:35:03.090Z,23.50
2022-09-07T11:36:02.092Z,23.73
2022-09-07T11:37:02.059Z,23.96
2022-09-07T11:38:02.062Z,23.91
2022-09-07T11:39:02.040Z,23.74
2022-09-07T11:40:02.097Z,23.69
2022-09-07T11:41:02.020Z,23.61
2022-09-07T11:42:42.587Z,23.47
2022-09-07T11:43:02.992Z,23.36
2022-09-07T11:44:01.984Z,23.32
2022-09-07T11:45:01.976Z,23.32
2022-09-07T11:46:02.027Z,23.32
2022-09-07T11:47:01.952Z,23.36
2022-09-07T11:48:01.952Z,23.41
2022-09-07T11:49:04.367Z,23.62
2022-09-07T11:50:01.926Z,23.87
2022-09-07T11:51:01.918Z,24.06
2022-09-07T11:52:05.403Z,24.23
2022-09-07T11:53:01.883Z,24.32
2022-09-07T11:54:01.883Z,24.47
2022-09-07T11:55:01.858Z,24.45
2022-09-07T11:56:01.863Z,24.47
2022-09-07T11:57:01.846Z,24.58
2022-09-07T11:58:01.840Z,24.74
2022-09-07T11:59:01.824Z,24.91
2022-09-07T12:00:01.816Z,25.04
2022-09-07T12:01:01.827Z,25.21
2022-09-07T12:02:01.796Z,25.33
2022-09-07T12:03:01.889Z,25.31
2022-09-07T12:04:01.928Z,25.07
2022-09-07T12:05:01.792Z,25.03
2022-09-07T12:06:01.747Z,24.99
2022-09-07T12:07:01.748Z,24.84
2022-09-07T12:08:01.740Z,24.66
2022-09-07T12:09:01.709Z,24.63
2022-09-07T12:10:01.702Z,24.54
2022-09-07T12:11:01.688Z,24.38
2022-09-07T12:12:16.419Z,24.18
2022-09-07T12:13:01.668Z,24.10
2022-09-07T12:14:01.662Z,23.98
2022-09-07T12:15:01.648Z,23.84
2022-09-07T12:16:01.719Z,23.68
2022-09-07T12:17:01.641Z,23.74
2022-09-07T12:18:16.359Z,23.87
2022-09-07T12:19:01.607Z,23.98
2022-09-07T12:20:01.592Z,24.06
2022-09-07T12:21:01.604Z,24.16
2022-09-07T12:22:01.572Z,24.23
2022-09-07T12:23:04.814Z,24.06
2022-09-07T12:24:01.564Z,23.96
2022-09-07T12:25:02.264Z,23.77
2022-09-07T12:26:01.545Z,23.66
2022-09-07T12:27:01.504Z,23.59
2022-09-07T12:28:01.525Z,23.61
2022-09-07T12:29:01.513Z,23.58
2022-09-07T12:30:01.484Z,23.55
2022-09-07T12:31:01.523Z,23.48
2022-09-07T12:32:53.416Z,23.47
2022-09-07T12:33:03.089Z,23.41
2022-09-07T12:34:01.459Z,23.39
2022-09-07T12:35:01.416Z,23.37
2022-09-07T12:36:01.445Z,23.37
2022-09-07T12:37:01.416Z,23.32
2022-09-07T12:38:01.400Z,23.25
2022-09-07T12:39:01.390Z,23.25
2022-09-07T12:40:01.426Z,23.32
2022-09-07T12:41:01.360Z,23.46
2022-09-07T12:43:09.654Z,23.69
2022-09-07T12:44:02.336Z,23.68
2022-09-07T12:45:01.317Z,23.74
2022-09-07T12:46:01.328Z,23.92
2022-09-07T12:47:01.297Z,24.01
2022-09-07T12:48:01.304Z,24.16
2022-09-07T12:49:01.281Z,24.28
2022-09-07T12:50:01.249Z,24.33
2022-09-07T12:51:01.263Z,24.39
2022-09-07T12:52:09.043Z,24.45
2022-09-07T12:53:02.269Z,24.47
2022-09-07T12:54:01.220Z,24.50
2022-09-07T12:55:25.812Z,24.48
2022-09-07T12:56:18.003Z,24.61
2022-09-07T12:58:02.173Z,24.92
2022-09-07T12:59:01.189Z,25.13
2022-09-07T13:00:01.185Z,25.29
2022-09-07T13:01:01.172Z,25.46
2022-09-07T13:02:01.289Z,25.40
2022-09-07T13:03:01.144Z,25.35
2022-09-07T13:04:01.239Z,25.31
2022-09-07T13:05:01.114Z,25.06
2022-09-07T13:06:01.093Z,24.98
2022-09-07T13:07:02.575Z,24.95
2022-09-07T13:08:08.409Z,25.03
2022-09-07T13:09:02.074Z,25.04
2022-09-07T13:10:01.170Z,25.22
2022-09-07T13:11:01.045Z,25.33
2022-09-07T13:12:01.028Z,25.48
2022-09-07T13:13:01.056Z,25.63
2022-09-07T13:14:04.745Z,25.63
2022-09-07T13:15:02.018Z,25.36
2022-09-07T13:16:01.007Z,25.17
2022-09-07T13:17:16.695Z,25.06
2022-09-07T13:18:01.950Z,25.04
2022-09-07T13:19:01.913Z,24.92
2022-09-07T13:20:01.313Z,24.70
2022-09-07T13:21:00.969Z,24.47
2022-09-07T13:22:00.917Z,24.45
2022-09-07T13:23:00.910Z,24.58
2022-09-07T13:24:45.746Z,24.69
2022-09-07T13:25:01.897Z,24.86
2022-09-07T13:26:00.882Z,25.04
2022-09-07T13:27:00.869Z,25.23
2022-09-07T13:28:00.850Z,25.29
2022-09-07T13:29:00.849Z,25.32
2022-09-07T13:30:00.830Z,25.29
2022-09-07T13:31:00.852Z,25.21